KOKC/OKC METAR and TAF weather

Enter ICAO airport designator
Station Type Date Time Source
KOKC METAR 2022/06/25 21:52 UTC NOAA

KOKC 252152Z 19013G17KT 10SM FEW250 37/18 A2992 RMK AO2 SLP112 T03670183


Station Type Date Time Source
KOKC Decoded METAR 2022/06/25 21:52 UTC NOAA

WILL ROGERS WORLD AIRPORT, OK, United States (KOKC) 35-23N 97-36W 390M
Jun 25, 2022 - 05:52 PM EDT / 2022.06.25 2152 UTC
Wind: from the S (190 degrees) at 15 MPH (13 KT) gusting to 20 MPH (17 KT):0
Visibility: 10 mile(s):0
Sky conditions: mostly clear
Temperature: 98.1 F (36.7 C)
Heat index: 101.3 F (38.5 C):1
Dew Point: 64.9 F (18.3 C)
Relative Humidity: 34%
Pressure (altimeter): 29.92 in. Hg (1013 hPa)
ob: KOKC 252152Z 19013G17KT 10SM FEW250 37/18 A2992 RMK AO2 SLP112 T03670183
cycle: 22

Station Type Date Time Source
KOKC TAF 2022/06/25 18:22 UTC NOAA

TAF KOKC 251720Z 2518/2618 19014G21KT P6SM SKC
FM252200 16011KT P6SM FEW100
FM260200 04012KT P6SM FEW100
FM260800 01019G27KT P6SM BKN025

Example: see airport list